sensor_id;sensor_type;location;lat;lon;timestamp;P1;durP1;ratioP1;P2;durP2;ratioP2
28545;SDS011;15749;49.606;8.738;2023-06-19T00:02:41;3.83;;;3.42;;
28545;SDS011;15749;49.606;8.738;2023-06-19T00:05:30;3.40;;;3.15;;
28545;SDS011;15749;49.606;8.738;2023-06-19T00:08:20;2.97;;;2.65;;
28545;SDS011;15749;49.606;8.738;2023-06-19T00:11:04;5.05;;;3.13;;
28545;SDS011;15749;49.606;8.738;2023-06-19T00:13:56;3.20;;;3.00;;
28545;SDS011;15749;49.606;8.738;2023-06-19T00:16:33;2.92;;;2.70;;
28545;SDS011;15749;49.606;8.738;2023-06-19T00:19:10;3.67;;;3.15;;
28545;SDS011;15749;49.606;8.738;2023-06-19T00:21:50;3.25;;;2.97;;
28545;SDS011;15749;49.606;8.738;2023-06-19T00:24:43;3.53;;;3.00;;
28545;SDS011;15749;49.606;8.738;2023-06-19T00:30:50;3.35;;;3.05;;
28545;SDS011;15749;49.606;8.738;2023-06-19T00:33:57;3.47;;;3.17;;
28545;SDS011;15749;49.606;8.738;2023-06-19T00:37:00;3.15;;;2.90;;
28545;SDS011;15749;49.606;8.738;2023-06-19T00:50:25;2.55;;;2.35;;
28545;SDS011;15749;49.606;8.738;2023-06-19T00:53:52;3.45;;;2.85;;
28545;SDS011;15749;49.606;8.738;2023-06-19T00:57:13;3.60;;;3.30;;
28545;SDS011;15749;49.606;8.738;2023-06-19T01:00:32;3.00;;;2.80;;
28545;SDS011;15749;49.606;8.738;2023-06-19T01:07:19;3.75;;;3.20;;
28545;SDS011;15749;49.606;8.738;2023-06-19T01:10:57;2.80;;;2.60;;
28545;SDS011;15749;49.606;8.738;2023-06-19T01:13:58;2.58;;;2.38;;
28545;SDS011;15749;49.606;8.738;2023-06-19T01:17:19;2.90;;;2.70;;
28545;SDS011;15749;49.606;8.738;2023-06-19T01:20:18;2.63;;;2.42;;
28545;SDS011;15749;49.606;8.738;2023-06-19T01:23:15;3.00;;;2.70;;
28545;SDS011;15749;49.606;8.738;2023-06-19T01:26:05;3.35;;;3.10;;
28545;SDS011;15749;49.606;8.738;2023-06-19T01:29:30;3.30;;;3.00;;
28545;SDS011;15749;49.606;8.738;2023-06-19T01:32:36;3.20;;;2.75;;
28545;SDS011;15749;49.606;8.738;2023-06-19T01:35:42;2.97;;;2.78;;
28545;SDS011;15749;49.606;8.738;2023-06-19T01:38:57;3.05;;;2.85;;
28545;SDS011;15749;49.606;8.738;2023-06-19T01:42:54;3.65;;;3.13;;
28545;SDS011;15749;49.606;8.738;2023-06-19T01:45:43;3.40;;;3.10;;
28545;SDS011;15749;49.606;8.738;2023-06-19T01:48:51;3.25;;;3.03;;
28545;SDS011;15749;49.606;8.738;2023-06-19T01:51:56;3.17;;;2.90;;
28545;SDS011;15749;49.606;8.738;2023-06-19T01:54:47;3.00;;;2.80;;
28545;SDS011;15749;49.606;8.738;2023-06-19T01:57:37;3.10;;;2.90;;
28545;SDS011;15749;49.606;8.738;2023-06-19T02:00:48;3.65;;;3.13;;
28545;SDS011;15749;49.606;8.738;2023-06-19T02:03:51;3.05;;;2.85;;
28545;SDS011;15749;49.606;8.738;2023-06-19T02:06:36;2.90;;;2.70;;
28545;SDS011;15749;49.606;8.738;2023-06-19T02:09:31;3.05;;;2.75;;
28545;SDS011;15749;49.606;8.738;2023-06-19T02:12:31;2.92;;;2.72;;
28545;SDS011;15749;49.606;8.738;2023-06-19T02:15:08;3.13;;;2.83;;
28545;SDS011;15749;49.606;8.738;2023-06-19T02:17:58;3.70;;;3.40;;
28545;SDS011;15749;49.606;8.738;2023-06-19T02:20:46;3.47;;;3.17;;
28545;SDS011;15749;49.606;8.738;2023-06-19T02:23:36;3.28;;;2.97;;
28545;SDS011;15749;49.606;8.738;2023-06-19T02:26:42;3.72;;;3.42;;
28545;SDS011;15749;49.606;8.738;2023-06-19T02:29:37;3.67;;;3.38;;
28545;SDS011;15749;49.606;8.738;2023-06-19T02:32:43;4.10;;;3.80;;
28545;SDS011;15749;49.606;8.738;2023-06-19T02:36:00;3.72;;;3.42;;
28545;SDS011;15749;49.606;8.738;2023-06-19T02:38:52;3.75;;;3.45;;
28545;SDS011;15749;49.606;8.738;2023-06-19T02:41:29;5.72;;;4.10;;
28545;SDS011;15749;49.606;8.738;2023-06-19T02:44:28;5.32;;;3.92;;
28545;SDS011;15749;49.606;8.738;2023-06-19T02:47:31;4.20;;;3.90;;
28545;SDS011;15749;49.606;8.738;2023-06-19T02:50:21;6.82;;;3.90;;
28545;SDS011;15749;49.606;8.738;2023-06-19T02:53:15;4.40;;;3.47;;
28545;SDS011;15749;49.606;8.738;2023-06-19T02:56:03;3.75;;;3.45;;
28545;SDS011;15749;49.606;8.738;2023-06-19T02:59:11;3.22;;;3.03;;
28545;SDS011;15749;49.606;8.738;2023-06-19T03:02:35;4.00;;;3.70;;
28545;SDS011;15749;49.606;8.738;2023-06-19T03:10:36;3.97;;;3.67;;
28545;SDS011;15749;49.606;8.738;2023-06-19T03:14:48;3.17;;;2.97;;
28545;SDS011;15749;49.606;8.738;2023-06-19T03:22:30;3.10;;;2.80;;
28545;SDS011;15749;49.606;8.738;2023-06-19T03:25:40;3.17;;;2.97;;
28545;SDS011;15749;49.606;8.738;2023-06-19T03:28:26;3.20;;;3.00;;
28545;SDS011;15749;49.606;8.738;2023-06-19T03:31:31;4.10;;;3.70;;
28545;SDS011;15749;49.606;8.738;2023-06-19T03:34:51;3.30;;;3.00;;
28545;SDS011;15749;49.606;8.738;2023-06-19T03:37:44;2.80;;;2.60;;
28545;SDS011;15749;49.606;8.738;2023-06-19T03:40:20;2.60;;;2.40;;
28545;SDS011;15749;49.606;8.738;2023-06-19T03:42:53;2.30;;;2.20;;
28545;SDS011;15749;49.606;8.738;2023-06-19T03:45:54;2.55;;;2.35;;
28545;SDS011;15749;49.606;8.738;2023-06-19T03:48:29;2.50;;;2.30;;
28545;SDS011;15749;49.606;8.738;2023-06-19T03:51:06;2.30;;;2.10;;
28545;SDS011;15749;49.606;8.738;2023-06-19T03:53:46;2.67;;;2.47;;
28545;SDS011;15749;49.606;8.738;2023-06-19T03:56:22;2.63;;;2.43;;
28545;SDS011;15749;49.606;8.738;2023-06-19T03:58:53;2.60;;;2.40;;
28545;SDS011;15749;49.606;8.738;2023-06-19T04:01:22;2.50;;;2.30;;
28545;SDS011;15749;49.606;8.738;2023-06-19T04:03:52;4.25;;;2.42;;
28545;SDS011;15749;49.606;8.738;2023-06-19T04:06:23;2.67;;;2.47;;
28545;SDS011;15749;49.606;8.738;2023-06-19T04:08:53;2.63;;;2.40;;
28545;SDS011;15749;49.606;8.738;2023-06-19T04:11:23;3.57;;;2.40;;
28545;SDS011;15749;49.606;8.738;2023-06-19T04:13:52;2.97;;;2.67;;
28545;SDS011;15749;49.606;8.738;2023-06-19T04:16:21;1.87;;;1.70;;
28545;SDS011;15749;49.606;8.738;2023-06-19T04:18:51;1.80;;;1.70;;
28545;SDS011;15749;49.606;8.738;2023-06-19T04:21:20;2.97;;;1.70;;
28545;SDS011;15749;49.606;8.738;2023-06-19T04:23:51;1.50;;;1.40;;
28545;SDS011;15749;49.606;8.738;2023-06-19T04:26:21;1.75;;;1.65;;
28545;SDS011;15749;49.606;8.738;2023-06-19T04:28:51;2.00;;;1.90;;
28545;SDS011;15749;49.606;8.738;2023-06-19T04:31:21;2.37;;;2.00;;
28545;SDS011;15749;49.606;8.738;2023-06-19T04:33:50;1.57;;;1.47;;
28545;SDS011;15749;49.606;8.738;2023-06-19T04:36:22;1.77;;;1.60;;
28545;SDS011;15749;49.606;8.738;2023-06-19T04:38:53;1.60;;;1.50;;
28545;SDS011;15749;49.606;8.738;2023-06-19T04:41:22;1.63;;;1.52;;
28545;SDS011;15749;49.606;8.738;2023-06-19T04:43:52;1.50;;;1.40;;
28545;SDS011;15749;49.606;8.738;2023-06-19T04:46:21;1.50;;;1.40;;
28545;SDS011;15749;49.606;8.738;2023-06-19T04:48:51;1.63;;;1.52;;
28545;SDS011;15749;49.606;8.738;2023-06-19T04:51:21;1.60;;;1.27;;
28545;SDS011;15749;49.606;8.738;2023-06-19T04:53:52;1.42;;;1.33;;
28545;SDS011;15749;49.606;8.738;2023-06-19T04:56:21;1.27;;;1.17;;
28545;SDS011;15749;49.606;8.738;2023-06-19T04:58:51;1.60;;;1.50;;
28545;SDS011;15749;49.606;8.738;2023-06-19T05:01:25;1.48;;;1.38;;
28545;SDS011;15749;49.606;8.738;2023-06-19T05:03:56;1.48;;;1.38;;
28545;SDS011;15749;49.606;8.738;2023-06-19T05:06:27;1.58;;;1.48;;
28545;SDS011;15749;49.606;8.738;2023-06-19T05:08:58;1.40;;;1.30;;
28545;SDS011;15749;49.606;8.738;2023-06-19T05:11:27;2.30;;;1.42;;
28545;SDS011;15749;49.606;8.738;2023-06-19T05:13:57;2.35;;;1.63;;
28545;SDS011;15749;49.606;8.738;2023-06-19T05:16:26;2.45;;;1.60;;
28545;SDS011;15749;49.606;8.738;2023-06-19T05:18:56;1.80;;;1.47;;
28545;SDS011;15749;49.606;8.738;2023-06-19T05:21:26;1.77;;;1.48;;
28545;SDS011;15749;49.606;8.738;2023-06-19T05:23:56;1.70;;;1.60;;
28545;SDS011;15749;49.606;8.738;2023-06-19T05:26:27;1.45;;;1.30;;
28545;SDS011;15749;49.606;8.738;2023-06-19T05:28:56;1.40;;;1.30;;
28545;SDS011;15749;49.606;8.738;2023-06-19T05:31:26;1.30;;;1.20;;
28545;SDS011;15749;49.606;8.738;2023-06-19T05:33:56;2.28;;;1.30;;
28545;SDS011;15749;49.606;8.738;2023-06-19T05:36:25;1.73;;;1.38;;
28545;SDS011;15749;49.606;8.738;2023-06-19T05:38:55;1.67;;;1.30;;
28545;SDS011;15749;49.606;8.738;2023-06-19T05:41:25;1.25;;;1.15;;
28545;SDS011;15749;49.606;8.738;2023-06-19T05:43:55;2.70;;;1.75;;
28545;SDS011;15749;49.606;8.738;2023-06-19T05:46:24;1.63;;;1.52;;
28545;SDS011;15749;49.606;8.738;2023-06-19T05:48:54;1.67;;;1.58;;
28545;SDS011;15749;49.606;8.738;2023-06-19T05:51:24;1.70;;;1.60;;
28545;SDS011;15749;49.606;8.738;2023-06-19T05:53:53;1.40;;;1.30;;
28545;SDS011;15749;49.606;8.738;2023-06-19T05:56:29;1.35;;;1.25;;
28545;SDS011;15749;49.606;8.738;2023-06-19T05:59:00;1.27;;;1.10;;
28545;SDS011;15749;49.606;8.738;2023-06-19T06:01:30;1.20;;;1.10;;
28545;SDS011;15749;49.606;8.738;2023-06-19T06:03:59;1.40;;;1.30;;
28545;SDS011;15749;49.606;8.738;2023-06-19T06:06:30;1.75;;;1.30;;
28545;SDS011;15749;49.606;8.738;2023-06-19T06:08:59;1.48;;;1.25;;
28545;SDS011;15749;49.606;8.738;2023-06-19T06:11:30;1.30;;;1.20;;
28545;SDS011;15749;49.606;8.738;2023-06-19T06:13:59;2.67;;;1.20;;
28545;SDS011;15749;49.606;8.738;2023-06-19T06:16:29;1.50;;;1.40;;
28545;SDS011;15749;49.606;8.738;2023-06-19T06:18:58;1.83;;;1.30;;
28545;SDS011;15749;49.606;8.738;2023-06-19T06:21:27;1.40;;;1.30;;
28545;SDS011;15749;49.606;8.738;2023-06-19T06:23:57;1.50;;;1.40;;
28545;SDS011;15749;49.606;8.738;2023-06-19T06:26:26;1.50;;;1.40;;
28545;SDS011;15749;49.606;8.738;2023-06-19T06:28:57;1.30;;;1.20;;
28545;SDS011;15749;49.606;8.738;2023-06-19T06:31:27;1.42;;;1.20;;
28545;SDS011;15749;49.606;8.738;2023-06-19T06:33:56;1.52;;;1.42;;
28545;SDS011;15749;49.606;8.738;2023-06-19T06:36:26;1.95;;;1.70;;
28545;SDS011;15749;49.606;8.738;2023-06-19T06:39:05;1.67;;;1.58;;
28545;SDS011;15749;49.606;8.738;2023-06-19T06:41:34;1.60;;;1.50;;
28545;SDS011;15749;49.606;8.738;2023-06-19T06:44:06;1.60;;;1.50;;
28545;SDS011;15749;49.606;8.738;2023-06-19T06:46:35;1.35;;;1.25;;
28545;SDS011;15749;49.606;8.738;2023-06-19T06:49:08;2.00;;;1.38;;
28545;SDS011;15749;49.606;8.738;2023-06-19T06:51:37;1.60;;;1.42;;
28545;SDS011;15749;49.606;8.738;2023-06-19T06:54:07;1.50;;;1.40;;
28545;SDS011;15749;49.606;8.738;2023-06-19T06:56:37;1.50;;;1.40;;
28545;SDS011;15749;49.606;8.738;2023-06-19T06:59:07;1.58;;;1.48;;
28545;SDS011;15749;49.606;8.738;2023-06-19T07:01:37;1.60;;;1.50;;
28545;SDS011;15749;49.606;8.738;2023-06-19T07:04:06;1.70;;;1.60;;
28545;SDS011;15749;49.606;8.738;2023-06-19T07:06:36;1.33;;;1.23;;
28545;SDS011;15749;49.606;8.738;2023-06-19T07:09:05;2.08;;;1.50;;
28545;SDS011;15749;49.606;8.738;2023-06-19T07:11:35;2.22;;;1.35;;
28545;SDS011;15749;49.606;8.738;2023-06-19T07:14:04;1.60;;;1.50;;
28545;SDS011;15749;49.606;8.738;2023-06-19T07:16:35;1.65;;;1.55;;
28545;SDS011;15749;49.606;8.738;2023-06-19T07:19:04;1.80;;;1.70;;
28545;SDS011;15749;49.606;8.738;2023-06-19T07:21:34;2.08;;;1.80;;
28545;SDS011;15749;49.606;8.738;2023-06-19T07:24:03;1.90;;;1.80;;
28545;SDS011;15749;49.606;8.738;2023-06-19T07:26:33;2.05;;;1.52;;
28545;SDS011;15749;49.606;8.738;2023-06-19T07:29:03;1.90;;;1.80;;
28545;SDS011;15749;49.606;8.738;2023-06-19T07:31:32;4.18;;;1.98;;
28545;SDS011;15749;49.606;8.738;2023-06-19T07:34:03;2.00;;;1.83;;
28545;SDS011;15749;49.606;8.738;2023-06-19T07:36:33;2.25;;;2.05;;
28545;SDS011;15749;49.606;8.738;2023-06-19T07:39:02;2.00;;;1.90;;
28545;SDS011;15749;49.606;8.738;2023-06-19T07:41:31;2.33;;;1.92;;
28545;SDS011;15749;49.606;8.738;2023-06-19T07:44:01;2.05;;;1.92;;
28545;SDS011;15749;49.606;8.738;2023-06-19T07:46:30;2.00;;;1.90;;
28545;SDS011;15749;49.606;8.738;2023-06-19T07:49:02;2.20;;;2.00;;
28545;SDS011;15749;49.606;8.738;2023-06-19T07:51:31;3.90;;;2.50;;
28545;SDS011;15749;49.606;8.738;2023-06-19T07:54:00;1.77;;;1.67;;
28545;SDS011;15749;49.606;8.738;2023-06-19T07:56:30;3.47;;;2.60;;
28545;SDS011;15749;49.606;8.738;2023-06-19T07:59:00;2.38;;;2.17;;
28545;SDS011;15749;49.606;8.738;2023-06-19T08:01:32;2.22;;;2.05;;
28545;SDS011;15749;49.606;8.738;2023-06-19T08:04:03;1.70;;;1.60;;
28545;SDS011;15749;49.606;8.738;2023-06-19T08:06:32;2.15;;;1.95;;
28545;SDS011;15749;49.606;8.738;2023-06-19T08:09:02;2.17;;;2.00;;
28545;SDS011;15749;49.606;8.738;2023-06-19T08:11:32;2.92;;;2.08;;
28545;SDS011;15749;49.606;8.738;2023-06-19T08:14:02;2.25;;;2.05;;
28545;SDS011;15749;49.606;8.738;2023-06-19T08:16:32;1.90;;;1.80;;
28545;SDS011;15749;49.606;8.738;2023-06-19T08:19:03;2.42;;;2.22;;
28545;SDS011;15749;49.606;8.738;2023-06-19T08:21:32;2.30;;;2.10;;
28545;SDS011;15749;49.606;8.738;2023-06-19T08:24:02;2.08;;;1.90;;
28545;SDS011;15749;49.606;8.738;2023-06-19T08:26:31;2.28;;;2.08;;
28545;SDS011;15749;49.606;8.738;2023-06-19T08:29:01;2.30;;;2.20;;
28545;SDS011;15749;49.606;8.738;2023-06-19T08:31:30;2.10;;;2.00;;
28545;SDS011;15749;49.606;8.738;2023-06-19T08:34:02;2.00;;;1.90;;
28545;SDS011;15749;49.606;8.738;2023-06-19T08:36:35;2.30;;;2.10;;
28545;SDS011;15749;49.606;8.738;2023-06-19T08:39:04;2.22;;;2.13;;
28545;SDS011;15749;49.606;8.738;2023-06-19T08:41:35;2.83;;;2.50;;
28545;SDS011;15749;49.606;8.738;2023-06-19T08:44:05;4.25;;;2.33;;
28545;SDS011;15749;49.606;8.738;2023-06-19T08:46:35;2.30;;;2.15;;
28545;SDS011;15749;49.606;8.738;2023-06-19T08:49:07;3.28;;;2.60;;
28545;SDS011;15749;49.606;8.738;2023-06-19T08:51:38;3.15;;;2.95;;
28545;SDS011;15749;49.606;8.738;2023-06-19T08:54:08;2.83;;;2.63;;
28545;SDS011;15749;49.606;8.738;2023-06-19T08:56:40;2.83;;;2.40;;
28545;SDS011;15749;49.606;8.738;2023-06-19T08:59:11;2.75;;;2.53;;
28545;SDS011;15749;49.606;8.738;2023-06-19T09:01:46;2.97;;;2.60;;
28545;SDS011;15749;49.606;8.738;2023-06-19T09:04:26;2.55;;;2.35;;
28545;SDS011;15749;49.606;8.738;2023-06-19T09:06:59;2.47;;;1.95;;
28545;SDS011;15749;49.606;8.738;2023-06-19T09:09:43;2.60;;;2.40;;
28545;SDS011;15749;49.606;8.738;2023-06-19T09:12:14;2.58;;;2.38;;
28545;SDS011;15749;49.606;8.738;2023-06-19T09:14:55;2.58;;;2.38;;
28545;SDS011;15749;49.606;8.738;2023-06-19T09:17:25;2.67;;;2.40;;
28545;SDS011;15749;49.606;8.738;2023-06-19T09:20:01;2.15;;;2.05;;
28545;SDS011;15749;49.606;8.738;2023-06-19T09:22:32;2.47;;;2.28;;
28545;SDS011;15749;49.606;8.738;2023-06-19T09:25:02;2.78;;;2.58;;
28545;SDS011;15749;49.606;8.738;2023-06-19T09:27:32;2.33;;;2.15;;
28545;SDS011;15749;49.606;8.738;2023-06-19T09:30:02;2.50;;;2.30;;
28545;SDS011;15749;49.606;8.738;2023-06-19T09:32:38;2.67;;;2.47;;
28545;SDS011;15749;49.606;8.738;2023-06-19T09:35:10;2.50;;;2.30;;
28545;SDS011;15749;49.606;8.738;2023-06-19T09:37:39;3.00;;;2.80;;
28545;SDS011;15749;49.606;8.738;2023-06-19T09:40:09;2.63;;;2.42;;
28545;SDS011;15749;49.606;8.738;2023-06-19T09:42:40;2.83;;;2.63;;
28545;SDS011;15749;49.606;8.738;2023-06-19T09:45:18;2.22;;;2.05;;
28545;SDS011;15749;49.606;8.738;2023-06-19T09:47:50;2.45;;;2.25;;
28545;SDS011;15749;49.606;8.738;2023-06-19T09:50:29;2.60;;;2.40;;
28545;SDS011;15749;49.606;8.738;2023-06-19T09:52:59;2.58;;;2.35;;
28545;SDS011;15749;49.606;8.738;2023-06-19T09:55:31;2.92;;;2.72;;
28545;SDS011;15749;49.606;8.738;2023-06-19T09:58:02;3.00;;;2.53;;
28545;SDS011;15749;49.606;8.738;2023-06-19T10:00:33;2.55;;;2.35;;
28545;SDS011;15749;49.606;8.738;2023-06-19T10:03:04;3.22;;;2.53;;
28545;SDS011;15749;49.606;8.738;2023-06-19T10:05:42;2.65;;;2.45;;
28545;SDS011;15749;49.606;8.738;2023-06-19T10:08:12;2.90;;;2.70;;
28545;SDS011;15749;49.606;8.738;2023-06-19T10:10:45;2.50;;;2.30;;
28545;SDS011;15749;49.606;8.738;2023-06-19T10:13:17;2.55;;;2.35;;
28545;SDS011;15749;49.606;8.738;2023-06-19T10:15:46;2.63;;;2.42;;
28545;SDS011;15749;49.606;8.738;2023-06-19T10:18:16;2.67;;;2.47;;
28545;SDS011;15749;49.606;8.738;2023-06-19T10:20:49;3.58;;;2.88;;
28545;SDS011;15749;49.606;8.738;2023-06-19T10:23:19;2.40;;;2.30;;
28545;SDS011;15749;49.606;8.738;2023-06-19T10:25:55;2.70;;;2.50;;
28545;SDS011;15749;49.606;8.738;2023-06-19T10:28:30;2.53;;;2.33;;
28545;SDS011;15749;49.606;8.738;2023-06-19T10:31:01;2.55;;;2.35;;
28545;SDS011;15749;49.606;8.738;2023-06-19T10:33:33;2.60;;;2.40;;
28545;SDS011;15749;49.606;8.738;2023-06-19T10:36:15;2.60;;;2.40;;
28545;SDS011;15749;49.606;8.738;2023-06-19T10:38:47;2.60;;;2.30;;
28545;SDS011;15749;49.606;8.738;2023-06-19T10:41:17;2.60;;;2.40;;
28545;SDS011;15749;49.606;8.738;2023-06-19T10:43:52;2.30;;;2.20;;
28545;SDS011;15749;49.606;8.738;2023-06-19T10:46:23;2.72;;;2.53;;
28545;SDS011;15749;49.606;8.738;2023-06-19T10:48:53;2.03;;;1.92;;
28545;SDS011;15749;49.606;8.738;2023-06-19T10:51:30;2.90;;;2.20;;
28545;SDS011;15749;49.606;8.738;2023-06-19T10:54:02;2.30;;;2.20;;
28545;SDS011;15749;49.606;8.738;2023-06-19T10:56:32;3.42;;;2.25;;
28545;SDS011;15749;49.606;8.738;2023-06-19T10:59:02;2.45;;;2.22;;
28545;SDS011;15749;49.606;8.738;2023-06-19T11:01:34;2.53;;;2.03;;
28545;SDS011;15749;49.606;8.738;2023-06-19T11:04:06;2.63;;;2.42;;
28545;SDS011;15749;49.606;8.738;2023-06-19T11:06:38;2.50;;;2.30;;
28545;SDS011;15749;49.606;8.738;2023-06-19T11:09:09;4.82;;;2.50;;
28545;SDS011;15749;49.606;8.738;2023-06-19T11:11:41;3.25;;;2.40;;
28545;SDS011;15749;49.606;8.738;2023-06-19T11:14:14;2.72;;;2.53;;
28545;SDS011;15749;49.606;8.738;2023-06-19T11:16:45;2.33;;;2.20;;
28545;SDS011;15749;49.606;8.738;2023-06-19T11:19:16;2.38;;;2.17;;
28545;SDS011;15749;49.606;8.738;2023-06-19T11:21:49;2.35;;;2.13;;
28545;SDS011;15749;49.606;8.738;2023-06-19T11:24:22;2.40;;;2.20;;
28545;SDS011;15749;49.606;8.738;2023-06-19T11:26:52;2.50;;;2.30;;
28545;SDS011;15749;49.606;8.738;2023-06-19T11:29:22;2.65;;;2.45;;
28545;SDS011;15749;49.606;8.738;2023-06-19T11:31:54;2.30;;;2.10;;
28545;SDS011;15749;49.606;8.738;2023-06-19T11:34:38;2.05;;;1.95;;
28545;SDS011;15749;49.606;8.738;2023-06-19T11:37:16;2.55;;;2.30;;
28545;SDS011;15749;49.606;8.738;2023-06-19T11:39:48;2.80;;;1.98;;
28545;SDS011;15749;49.606;8.738;2023-06-19T11:42:19;2.50;;;2.30;;
28545;SDS011;15749;49.606;8.738;2023-06-19T11:44:52;2.60;;;2.40;;
28545;SDS011;15749;49.606;8.738;2023-06-19T11:47:23;1.92;;;1.83;;
28545;SDS011;15749;49.606;8.738;2023-06-19T11:49:54;2.25;;;2.15;;
28545;SDS011;15749;49.606;8.738;2023-06-19T11:52:24;2.10;;;2.00;;
28545;SDS011;15749;49.606;8.738;2023-06-19T11:54:54;2.38;;;2.17;;
28545;SDS011;15749;49.606;8.738;2023-06-19T11:57:23;2.25;;;2.05;;
28545;SDS011;15749;49.606;8.738;2023-06-19T11:59:55;2.40;;;2.17;;
28545;SDS011;15749;49.606;8.738;2023-06-19T12:02:24;3.75;;;2.83;;
28545;SDS011;15749;49.606;8.738;2023-06-19T12:04:54;3.10;;;2.80;;
28545;SDS011;15749;49.606;8.738;2023-06-19T12:07:24;3.63;;;3.00;;
28545;SDS011;15749;49.606;8.738;2023-06-19T12:09:54;2.40;;;2.20;;
28545;SDS011;15749;49.606;8.738;2023-06-19T12:12:23;4.85;;;2.03;;
28545;SDS011;15749;49.606;8.738;2023-06-19T12:14:54;2.30;;;2.10;;
28545;SDS011;15749;49.606;8.738;2023-06-19T12:17:23;2.35;;;2.13;;
28545;SDS011;15749;49.606;8.738;2023-06-19T12:19:53;3.65;;;1.90;;
28545;SDS011;15749;49.606;8.738;2023-06-19T12:22:22;2.47;;;2.28;;
28545;SDS011;15749;49.606;8.738;2023-06-19T12:24:53;2.40;;;2.20;;
28545;SDS011;15749;49.606;8.738;2023-06-19T12:27:22;2.42;;;2.00;;
28545;SDS011;15749;49.606;8.738;2023-06-19T12:29:52;2.28;;;2.13;;
28545;SDS011;15749;49.606;8.738;2023-06-19T12:32:22;2.20;;;2.10;;
28545;SDS011;15749;49.606;8.738;2023-06-19T12:34:52;2.40;;;1.88;;
28545;SDS011;15749;49.606;8.738;2023-06-19T12:37:22;1.95;;;1.80;;
28545;SDS011;15749;49.606;8.738;2023-06-19T12:39:53;1.73;;;1.63;;
28545;SDS011;15749;49.606;8.738;2023-06-19T12:42:22;2.50;;;2.10;;
28545;SDS011;15749;49.606;8.738;2023-06-19T12:44:52;2.05;;;1.88;;
28545;SDS011;15749;49.606;8.738;2023-06-19T12:47:21;2.58;;;2.38;;
28545;SDS011;15749;49.606;8.738;2023-06-19T12:49:51;1.92;;;1.75;;
28545;SDS011;15749;49.606;8.738;2023-06-19T12:52:21;1.80;;;1.70;;
28545;SDS011;15749;49.606;8.738;2023-06-19T12:54:51;3.33;;;1.92;;
28545;SDS011;15749;49.606;8.738;2023-06-19T12:57:21;2.72;;;2.40;;
28545;SDS011;15749;49.606;8.738;2023-06-19T12:59:50;2.22;;;2.13;;
28545;SDS011;15749;49.606;8.738;2023-06-19T13:02:20;2.28;;;2.00;;
28545;SDS011;15749;49.606;8.738;2023-06-19T13:04:50;2.65;;;2.20;;
28545;SDS011;15749;49.606;8.738;2023-06-19T13:07:20;2.47;;;2.28;;
28545;SDS011;15749;49.606;8.738;2023-06-19T13:09:51;2.10;;;2.00;;
28545;SDS011;15749;49.606;8.738;2023-06-19T13:12:21;2.95;;;1.83;;
28545;SDS011;15749;49.606;8.738;2023-06-19T13:14:51;2.00;;;1.77;;
28545;SDS011;15749;49.606;8.738;2023-06-19T13:17:20;1.70;;;1.60;;
28545;SDS011;15749;49.606;8.738;2023-06-19T13:19:50;1.83;;;1.73;;
28545;SDS011;15749;49.606;8.738;2023-06-19T13:22:19;2.17;;;2.00;;
28545;SDS011;15749;49.606;8.738;2023-06-19T13:24:52;2.00;;;1.88;;
28545;SDS011;15749;49.606;8.738;2023-06-19T13:27:22;1.92;;;1.80;;
28545;SDS011;15749;49.606;8.738;2023-06-19T13:29:51;1.50;;;1.40;;
28545;SDS011;15749;49.606;8.738;2023-06-19T13:32:23;2.20;;;2.00;;
28545;SDS011;15749;49.606;8.738;2023-06-19T13:34:52;2.20;;;2.00;;
28545;SDS011;15749;49.606;8.738;2023-06-19T13:37:22;3.33;;;2.50;;
28545;SDS011;15749;49.606;8.738;2023-06-19T13:39:53;2.10;;;1.90;;
28545;SDS011;15749;49.606;8.738;2023-06-19T13:42:22;2.35;;;2.15;;
28545;SDS011;15749;49.606;8.738;2023-06-19T13:44:52;2.00;;;1.90;;
28545;SDS011;15749;49.606;8.738;2023-06-19T13:47:21;2.67;;;2.33;;
28545;SDS011;15749;49.606;8.738;2023-06-19T13:49:52;2.08;;;1.80;;
28545;SDS011;15749;49.606;8.738;2023-06-19T13:52:22;2.20;;;2.00;;
28545;SDS011;15749;49.606;8.738;2023-06-19T13:54:53;2.75;;;1.92;;
28545;SDS011;15749;49.606;8.738;2023-06-19T13:57:22;2.33;;;2.10;;
28545;SDS011;15749;49.606;8.738;2023-06-19T13:59:52;2.70;;;2.50;;
28545;SDS011;15749;49.606;8.738;2023-06-19T14:02:21;2.30;;;2.10;;
28545;SDS011;15749;49.606;8.738;2023-06-19T14:04:51;2.33;;;2.13;;
28545;SDS011;15749;49.606;8.738;2023-06-19T14:07:20;2.33;;;2.15;;
28545;SDS011;15749;49.606;8.738;2023-06-19T14:09:50;2.20;;;2.00;;
28545;SDS011;15749;49.606;8.738;2023-06-19T14:12:21;1.98;;;1.77;;
28545;SDS011;15749;49.606;8.738;2023-06-19T14:14:51;2.40;;;2.25;;
28545;SDS011;15749;49.606;8.738;2023-06-19T14:17:20;2.45;;;2.25;;
28545;SDS011;15749;49.606;8.738;2023-06-19T14:19:50;1.98;;;1.88;;
28545;SDS011;15749;49.606;8.738;2023-06-19T14:22:19;2.00;;;1.80;;
28545;SDS011;15749;49.606;8.738;2023-06-19T14:24:49;1.95;;;1.85;;
28545;SDS011;15749;49.606;8.738;2023-06-19T14:27:21;3.45;;;2.42;;
28545;SDS011;15749;49.606;8.738;2023-06-19T14:29:51;2.00;;;1.90;;
28545;SDS011;15749;49.606;8.738;2023-06-19T14:32:21;2.00;;;1.90;;
28545;SDS011;15749;49.606;8.738;2023-06-19T14:34:51;1.90;;;1.80;;
28545;SDS011;15749;49.606;8.738;2023-06-19T14:37:21;2.17;;;1.60;;
28545;SDS011;15749;49.606;8.738;2023-06-19T14:39:50;2.38;;;1.98;;
28545;SDS011;15749;49.606;8.738;2023-06-19T14:42:23;1.80;;;1.70;;
28545;SDS011;15749;49.606;8.738;2023-06-19T14:44:52;2.00;;;1.90;;
28545;SDS011;15749;49.606;8.738;2023-06-19T14:47:22;1.83;;;1.73;;
28545;SDS011;15749;49.606;8.738;2023-06-19T14:49:52;2.33;;;2.17;;
28545;SDS011;15749;49.606;8.738;2023-06-19T14:52:22;2.30;;;2.10;;
28545;SDS011;15749;49.606;8.738;2023-06-19T14:54:51;2.00;;;1.90;;
28545;SDS011;15749;49.606;8.738;2023-06-19T14:57:26;1.70;;;1.60;;
28545;SDS011;15749;49.606;8.738;2023-06-19T14:59:55;2.40;;;2.20;;
28545;SDS011;15749;49.606;8.738;2023-06-19T15:02:24;2.65;;;2.45;;
28545;SDS011;15749;49.606;8.738;2023-06-19T15:04:54;1.88;;;1.77;;
28545;SDS011;15749;49.606;8.738;2023-06-19T15:07:32;2.35;;;1.88;;
28545;SDS011;15749;49.606;8.738;2023-06-19T15:10:02;2.10;;;2.00;;
28545;SDS011;15749;49.606;8.738;2023-06-19T15:12:34;2.67;;;2.08;;
28545;SDS011;15749;49.606;8.738;2023-06-19T15:15:03;1.85;;;1.70;;
28545;SDS011;15749;49.606;8.738;2023-06-19T15:17:34;2.50;;;2.30;;
28545;SDS011;15749;49.606;8.738;2023-06-19T15:20:04;2.22;;;2.03;;
28545;SDS011;15749;49.606;8.738;2023-06-19T15:22:36;2.05;;;1.90;;
28545;SDS011;15749;49.606;8.738;2023-06-19T15:25:06;2.55;;;2.35;;
28545;SDS011;15749;49.606;8.738;2023-06-19T15:27:37;2.53;;;2.33;;
28545;SDS011;15749;49.606;8.738;2023-06-19T15:30:07;2.00;;;1.90;;
28545;SDS011;15749;49.606;8.738;2023-06-19T15:32:38;3.60;;;2.15;;
28545;SDS011;15749;49.606;8.738;2023-06-19T15:35:08;1.90;;;1.77;;
28545;SDS011;15749;49.606;8.738;2023-06-19T15:37:37;2.30;;;2.10;;
28545;SDS011;15749;49.606;8.738;2023-06-19T15:40:07;2.45;;;1.95;;
28545;SDS011;15749;49.606;8.738;2023-06-19T15:42:41;2.13;;;2.03;;
28545;SDS011;15749;49.606;8.738;2023-06-19T15:45:11;1.92;;;1.83;;
28545;SDS011;15749;49.606;8.738;2023-06-19T15:47:41;2.20;;;2.00;;
28545;SDS011;15749;49.606;8.738;2023-06-19T15:50:11;2.30;;;2.08;;
28545;SDS011;15749;49.606;8.738;2023-06-19T15:52:40;2.35;;;2.15;;
28545;SDS011;15749;49.606;8.738;2023-06-19T15:55:10;2.08;;;1.88;;
28545;SDS011;15749;49.606;8.738;2023-06-19T15:57:40;2.10;;;1.88;;
28545;SDS011;15749;49.606;8.738;2023-06-19T16:00:10;1.80;;;1.70;;
28545;SDS011;15749;49.606;8.738;2023-06-19T16:02:41;2.08;;;1.88;;
28545;SDS011;15749;49.606;8.738;2023-06-19T16:05:14;1.88;;;1.77;;
28545;SDS011;15749;49.606;8.738;2023-06-19T16:07:44;1.70;;;1.60;;
28545;SDS011;15749;49.606;8.738;2023-06-19T16:10:13;1.65;;;1.55;;